Clifton, Kansas
Current Conditions -  °F | °C
As of 5:55 AM on Friday 21 Nov 2014 (Local Time) from KCNK Reporting Station
Clear Clear  
Wind Chill: 13°   Ceiling: Unl
Heat Index: 21°   Visibility: 10mi
Dew Point: 17°   Wind: 6mph
Humidity: 85%   Direction: 70°ENE
Pressure: 30.15"   Gusts: NA
Location:  39.57°N, 97.28°W
Report Text: KCNK 211155Z AUTO 07005KT 10SM CLR M06/M08 A3015 RMK AO2 SLP226 T10611083 11050 21072 56008
Loading
Personal Weather Stations






























Interactive Weather Map New forecast layout! Learn more

10-Day Weather Forecast

Advertisements
Track Severe Weather on mobile